San Bernardino, CA

12:26 PM PDT on August 20, 2014 (GMT -0700)
Ontario International | Change Station
CLOSE
Current Station
Airport
Location: Ontario,
Elevation: 942 ft
Nearby Weather Stations
Active Advisory: Flash Flood Watch

Elev 942 ft 34.06 °N, 117.60 °W | Updated 33 minutes ago

Partly Cloudy
Partly Cloudy
79 °F
Feels Like 79 °F
N
7
Wind Variable Wind from WNW

Today
High -- | Low -- °F
--% Chance of Precip.
Yesterday
High -- | Low -- °F
Precip. -- in
6:14 AM 7:30 PM
Waning Crescent, 19% visible
Pressure 29.90 in
Visibility 10.0 miles
Clouds Few 9000 ft
Few 24000 ft
Dew Point 53 °F
Humidity 40%
Rainfall 0.00 in
Snow Depth Not available.
UV 10 out of 12
Pollen 5.60 out of 12
Ozone Good
PM2.5 Moderate
Flu Activity Not available.
METAR KONT 201853Z 30006KT 10SM FEW090 FEW240 26/12 A2994 RMK AO2 SLP124 CB DSNT E-SE ACC DSNT NW T02610117

More Conditions Fewer Conditions

Pressure 29.90 in
Visibility 10.0 miles
Clouds Few 9000 ft
Few 24000 ft
Dew Point 53 °F
Humidity 40%
Rainfall 0.00 in
Snow Depth Not available.
UV 10 out of 12
Pollen 5.60 out of 12
Ozone Good
PM2.5 Moderate
Flu Activity Not available.
METAR KONT 201853Z 30006KT 10SM FEW090 FEW240 26/12 A2994 RMK AO2 SLP124 CB DSNT E-SE ACC DSNT NW T02610117

More Conditions Fewer Conditions

10-Day Weather Forecast

Almanac

Astronomy

Aug. 20, 2014 Rise Set
Actual Time 6:14 AM PDT 7:30 PM PDT
Civil Twilight 5:48 AM PDT 7:56 PM PDT
Nautical Twilight 5:16 AM PDT 8:27 PM PDT
Astronomical Twilight 4:44 AM PDT 8:59 PM PDT
Moon 2:02 AM PDT 4:14 PM PDT
Length of Visible Light 14h 08m
Length of Day
13h 15m
Tomorrow will be 1m 56s shorter.
Waning Crescent, 19% of the Moon is Illuminated
Today
Waning Crescent
Aug 25
New
Sep 2
First Quarter
Sep 8
Full
Sep 15
Last Quarter

Today's Extremes

State Highs State Lows

Community

WunderPhotos

Upload Photos

1,745,724 photos uploaded!

WunderBlogs® & News

By Dr. Jeff Masters
Director of Meteorology, Weather Underground
By Kari Strenfel
Meteorologist, Weather Underground
By Christopher C. Burt
Weather Historian, Weather Underground
August 20, 2014
August 20, 2014
August 20, 2014

Nearby

Air Quality

  Air Quality AQ Index Pollutant
Yesterday Good
PM10
Yesterday Good
OZONE
Current Moderate
PM2.5
Current Good
OZONE
Thursday Good
PM10
Thursday Moderate
OZONE
Thursday Good
CO
Thursday Good
NO2

Snow Depth

Station Depth Elevation
Leavitt Meadows 0 in 7200 ft
Summit Meadow 0 in 9122 ft
Fallen Leaf 0 in 6300 ft
Adin Mountain 0 in 6200 ft

Earthquake Activity

City Distance Mag. Time & Date
Malibu Beach, California 82 miles 3.4 10:03 AM PDT
2014-08-15
Yucca Valley, California 50 miles 3.8 8:57 PM PDT
2014-08-14
Salton City, California 97 miles 2.6 6:58 AM PDT
2014-08-14
Ojai, California 106 miles 2.6 8:43 PM PDT
2014-08-13
Minimum magnitude displayed is 2.5.

Coastal Water Temperatures

Place Temperature
No Stations Reporting

Nearby Weather Stations